Time;durP1;ratioP1;P1;durP2;ratioP2;P2;SDS_P1;SDS_P2;PMS_P1;PMS_P2;Temp;Humidity;BMP_temperature;BMP_pressure;BME280_temperature;BME280_humidity;BME280_pressure;Samples;Min_cycle;Max_cycle;Signal;HPM_P1;HPM_P2
2022/04/10 00:00:55;;;;;;;6.37;4.80;;;0.60;99.90;;;;;;459876;257;27934;-72
2022/04/10 00:02:56;;;;;;;7.78;5.45;;;0.60;99.90;;;;;;459840;257;27992;-72
2022/04/10 00:04:57;;;;;;;6.15;5.30;;;0.50;99.90;;;;;;459881;257;27560;-74
2022/04/10 00:06:59;;;;;;;10.20;5.75;;;0.50;99.90;;;;;;459857;257;27564;-72
2022/04/10 00:09:00;;;;;;;7.07;6.12;;;0.50;99.90;;;;;;459858;257;27483;-73
2022/04/10 00:11:01;;;;;;;6.70;6.00;;;0.50;99.90;;;;;;459857;257;27444;-72
2022/04/10 00:13:02;;;;;;;8.93;5.75;;;0.50;99.90;;;;;;459823;257;27493;-73
2022/04/10 00:15:04;;;;;;;7.32;5.70;;;0.40;99.90;;;;;;459871;257;27516;-76
2022/04/10 00:17:05;;;;;;;5.80;5.28;;;0.40;99.90;;;;;;459870;257;27453;-72
2022/04/10 00:19:06;;;;;;;7.87;5.85;;;0.40;99.90;;;;;;459860;257;27484;-74
2022/04/10 00:21:07;;;;;;;6.28;5.53;;;0.50;99.90;;;;;;459841;257;27445;-73
2022/04/10 00:23:09;;;;;;;7.45;5.57;;;0.50;99.90;;;;;;459854;257;28055;-72
2022/04/10 00:25:10;;;;;;;6.32;5.50;;;0.40;99.90;;;;;;459869;257;28047;-74
2022/04/10 00:27:13;;;;;;;5.90;5.20;;;0.40;99.90;;;;;;459889;257;27915;-72
2022/04/10 00:29:12;;;;;;;6.20;5.60;;;0.40;99.90;;;;;;459783;258;28043;-74
2022/04/10 00:31:14;;;;;;;5.07;4.68;;;0.40;99.90;;;;;;459874;257;27451;-72
2022/04/10 00:33:15;;;;;;;6.80;5.15;;;0.40;99.90;;;;;;459880;257;27495;-73
2022/04/10 00:35:16;;;;;;;6.20;5.60;;;0.40;99.90;;;;;;459878;257;27461;-72
2022/04/10 00:37:17;;;;;;;6.78;4.80;;;0.40;99.90;;;;;;459894;257;27444;-72
2022/04/10 00:39:19;;;;;;;6.43;4.68;;;0.40;99.90;;;;;;459863;257;27502;-74
2022/04/10 00:41:20;;;;;;;7.80;6.25;;;0.30;99.90;;;;;;459851;257;27453;-73
2022/04/10 00:43:21;;;;;;;6.90;6.20;;;0.20;99.90;;;;;;459856;257;27523;-72
2022/04/10 00:45:22;;;;;;;5.53;5.03;;;0.20;99.90;;;;;;459828;257;27461;-72
2022/04/10 00:47:24;;;;;;;6.05;5.35;;;0.20;99.90;;;;;;459841;257;27484;-72
2022/04/10 00:49:25;;;;;;;6.20;5.05;;;0.20;99.90;;;;;;459846;257;27491;-72
2022/04/10 00:51:41;;;;;;;5.53;5.03;;;0.20;99.90;;;;;;459862;257;27951;-72
2022/04/10 00:53:42;;;;;;;6.70;5.07;;;0.20;99.90;;;;;;459857;257;27912;-72
2022/04/10 00:55:44;;;;;;;4.93;4.53;;;0.20;99.90;;;;;;459859;257;29199;-72
2022/04/10 00:57:45;;;;;;;5.05;4.65;;;0.20;99.90;;;;;;459858;257;28046;-72
2022/04/10 00:59:46;;;;;;;6.90;4.90;;;0.20;99.90;;;;;;459505;257;27636;-73
2022/04/10 01:01:47;;;;;;;5.00;4.50;;;0.20;99.90;;;;;;459328;257;27584;-73
2022/04/10 01:03:49;;;;;;;4.53;3.70;;;0.20;99.90;;;;;;459307;257;27568;-72
2022/04/10 01:05:50;;;;;;;4.50;4.10;;;0.20;99.90;;;;;;459295;257;27576;-72
2022/04/10 01:07:51;;;;;;;6.60;4.25;;;0.20;99.90;;;;;;459316;257;27620;-72
2022/04/10 01:09:52;;;;;;;5.70;5.10;;;0.10;99.90;;;;;;459312;255;27553;-73
2022/04/10 01:11:54;;;;;;;10.43;5.55;;;0.10;99.90;;;;;;459315;257;27607;-74
2022/04/10 01:13:55;;;;;;;7.12;4.87;;;0.10;99.90;;;;;;459315;257;27542;-72
2022/04/10 01:15:56;;;;;;;8.25;5.47;;;0.10;99.90;;;;;;459275;257;27571;-72
2022/04/10 01:20:03;;;;;;;6.03;5.47;;;0.00;99.90;;;;;;493109;241;28906;-72
2022/04/10 01:22:04;;;;;;;6.85;6.15;;;0.00;99.90;;;;;;477056;248;27953;-75
2022/04/10 01:24:06;;;;;;;5.85;5.07;;;0.00;99.90;;;;;;493308;241;27351;-72
2022/04/10 01:26:07;;;;;;;5.85;5.25;;;0.10;99.90;;;;;;493289;241;27346;-72
2022/04/10 01:28:08;;;;;;;7.32;5.03;;;0.10;99.90;;;;;;493323;241;27448;-74
2022/04/10 01:30:09;;;;;;;6.37;5.57;;;0.10;99.90;;;;;;493306;241;27834;-72
2022/04/10 01:32:11;;;;;;;5.87;5.20;;;0.10;99.90;;;;;;493319;241;27888;-73
2022/04/10 01:34:16;;;;;;;7.60;6.55;;;0.00;99.90;;;;;;493309;241;27809;-72
2022/04/10 01:36:14;;;;;;;9.98;6.55;;;0.00;99.90;;;;;;492881;241;27851;-72
2022/04/10 01:38:15;;;;;;;8.98;6.12;;;0.00;99.90;;;;;;493362;241;27449;-72
2022/04/10 01:40:17;;;;;;;6.37;5.75;;;0.00;99.90;;;;;;493326;240;27371;-72
2022/04/10 01:42:18;;;;;;;9.10;6.82;;;0.00;99.90;;;;;;493341;241;27927;-72
2022/04/10 01:44:19;;;;;;;8.05;6.53;;;0.00;99.90;;;;;;493365;241;27880;-73
2022/04/10 01:46:20;;;;;;;9.50;7.35;;;0.00;99.90;;;;;;493376;241;28608;-72
2022/04/10 01:48:22;;;;;;;10.77;6.53;;;0.00;99.90;;;;;;493326;241;27969;-73
2022/04/10 01:50:23;;;;;;;8.05;6.25;;;0.00;99.90;;;;;;493335;241;27394;-74
2022/04/10 01:52:24;;;;;;;9.23;6.40;;;0.00;99.90;;;;;;477139;248;27392;-72
2022/04/10 01:54:25;;;;;;;8.77;6.15;;;0.10;99.90;;;;;;493361;241;27386;-73
2022/04/10 01:56:27;;;;;;;9.63;6.57;;;0.10;99.90;;;;;;493338;241;27419;-73
2022/04/10 01:58:28;;;;;;;7.45;6.10;;;0.10;99.90;;;;;;493343;241;27454;-73
2022/04/10 02:00:29;;;;;;;7.62;6.62;;;0.10;99.90;;;;;;493363;241;27409;-73
2022/04/10 02:02:30;;;;;;;9.13;6.75;;;0.10;99.90;;;;;;493342;241;27517;-72
2022/04/10 02:04:32;;;;;;;9.50;7.10;;;0.10;99.90;;;;;;493324;241;27402;-72
2022/04/10 02:06:33;;;;;;;12.20;8.75;;;0.20;99.90;;;;;;493286;241;27351;-72
2022/04/10 02:08:37;;;;;;;11.00;7.97;;;0.20;99.90;;;;;;477105;248;27929;-72
2022/04/10 02:10:39;;;;;;;9.48;6.68;;;0.20;99.90;;;;;;493329;241;27338;-72
2022/04/10 02:12:40;;;;;;;9.07;7.40;;;0.20;99.90;;;;;;493312;241;27472;-73
2022/04/10 02:14:41;;;;;;;10.30;7.72;;;0.20;99.90;;;;;;493274;241;27378;-72
2022/04/10 02:16:42;;;;;;;7.65;6.82;;;0.20;99.90;;;;;;493314;241;27382;-73
2022/04/10 02:18:44;;;;;;;9.05;7.50;;;0.20;99.90;;;;;;493346;241;27491;-73
2022/04/10 02:20:45;;;;;;;14.32;8.82;;;0.30;99.90;;;;;;493353;241;27350;-72
2022/04/10 02:22:46;;;;;;;10.00;8.35;;;0.30;99.90;;;;;;493319;241;27874;-73
2022/04/10 02:24:47;;;;;;;13.77;9.55;;;0.30;99.90;;;;;;493309;241;27816;-72
2022/04/10 02:26:49;;;;;;;13.30;10.07;;;0.30;99.90;;;;;;493312;241;27492;-74
2022/04/10 02:28:50;;;;;;;10.95;8.70;;;0.30;99.90;;;;;;493334;241;27418;-72
2022/04/10 02:30:51;;;;;;;10.68;8.43;;;0.30;99.90;;;;;;493357;241;27381;-72
2022/04/10 02:32:52;;;;;;;10.85;8.30;;;0.30;99.90;;;;;;493315;241;27454;-72
2022/04/10 02:34:54;;;;;;;9.95;7.90;;;0.40;99.90;;;;;;493332;241;27351;-72
2022/04/10 02:36:55;;;;;;;10.88;8.73;;;0.40;99.90;;;;;;493313;241;27391;-73
2022/04/10 02:38:56;;;;;;;11.82;7.70;;;0.50;99.90;;;;;;493314;241;27383;-77
2022/04/10 02:40:58;;;;;;;11.57;7.47;;;0.50;99.90;;;;;;493342;241;27922;-72
2022/04/10 02:42:59;;;;;;;8.35;7.55;;;0.50;99.90;;;;;;493335;241;27877;-73
2022/04/10 02:45:00;;;;;;;9.82;7.15;;;0.50;99.90;;;;;;493332;241;27811;-72
2022/04/10 02:47:01;;;;;;;10.98;7.70;;;0.50;99.90;;;;;;493288;241;27890;-72
2022/04/10 02:49:03;;;;;;;12.45;8.55;;;0.60;99.90;;;;;;493339;241;27476;-72
2022/04/10 02:51:04;;;;;;;9.45;7.87;;;0.60;99.90;;;;;;493342;241;27355;-73
2022/04/10 02:53:05;;;;;;;9.45;7.55;;;0.60;99.90;;;;;;493326;241;27385;-72
2022/04/10 02:55:06;;;;;;;9.73;7.53;;;0.60;99.90;;;;;;493330;241;27352;-72
2022/04/10 02:57:08;;;;;;;9.05;7.30;;;0.60;99.90;;;;;;493303;241;27440;-72
2022/04/10 02:59:09;;;;;;;11.80;7.12;;;0.50;99.90;;;;;;493353;241;27394;-74
2022/04/10 03:01:10;;;;;;;8.10;7.25;;;0.50;99.90;;;;;;493325;241;27364;-72
2022/04/10 03:03:11;;;;;;;9.20;7.43;;;0.50;99.90;;;;;;493369;241;27398;-73
2022/04/10 03:05:13;;;;;;;11.07;7.45;;;0.60;99.90;;;;;;493312;241;27840;-73
2022/04/10 03:07:14;;;;;;;10.65;7.93;;;0.60;99.90;;;;;;493285;241;27966;-72
2022/04/10 03:09:15;;;;;;;9.20;7.53;;;0.50;99.90;;;;;;493339;241;27880;-74
2022/04/10 03:11:16;;;;;;;7.22;6.40;;;0.50;99.90;;;;;;493334;241;27802;-73
2022/04/10 03:13:18;;;;;;;9.07;6.82;;;0.50;99.90;;;;;;493319;241;27377;-73
2022/04/10 03:15:19;;;;;;;10.13;7.05;;;0.50;99.90;;;;;;493341;241;27346;-73
2022/04/10 03:17:20;;;;;;;12.85;7.10;;;0.50;99.90;;;;;;477137;248;27526;-73
2022/04/10 03:19:21;;;;;;;8.18;6.37;;;0.50;99.90;;;;;;493290;241;27474;-72
2022/04/10 03:21:23;;;;;;;13.30;6.90;;;0.50;99.90;;;;;;493321;241;27356;-72
2022/04/10 03:23:24;;;;;;;8.40;6.78;;;0.50;99.90;;;;;;493347;241;27394;-72
2022/04/10 03:25:25;;;;;;;8.85;6.50;;;0.50;99.90;;;;;;493366;241;27341;-72
2022/04/10 03:27:26;;;;;;;7.72;6.47;;;0.50;99.90;;;;;;493366;241;27444;-72
2022/04/10 03:29:28;;;;;;;7.62;6.25;;;0.40;99.90;;;;;;493369;241;27947;-72
2022/04/10 03:31:29;;;;;;;8.95;6.53;;;0.40;99.90;;;;;;493344;241;27822;-72
2022/04/10 03:33:31;;;;;;;8.43;6.30;;;0.40;99.90;;;;;;493321;241;28057;-73
2022/04/10 03:35:32;;;;;;;7.62;6.12;;;0.40;99.90;;;;;;493328;241;27418;-73
2022/04/10 03:37:34;;;;;;;10.45;6.50;;;0.40;99.90;;;;;;493312;241;27390;-73
2022/04/10 03:39:35;;;;;;;7.20;6.18;;;0.30;99.90;;;;;;493378;241;27892;-72
2022/04/10 03:41:36;;;;;;;9.60;6.32;;;0.30;99.90;;;;;;493308;241;27865;-72
2022/04/10 03:43:37;;;;;;;6.35;5.25;;;0.30;99.90;;;;;;493315;241;27959;-72
2022/04/10 03:45:39;;;;;;;8.57;7.40;;;0.20;99.90;;;;;;493308;241;27879;-72
2022/04/10 03:47:40;;;;;;;8.38;6.82;;;0.20;99.90;;;;;;493297;241;27390;-78
2022/04/10 03:49:41;;;;;;;10.00;7.47;;;0.20;99.90;;;;;;493342;241;27455;-72
2022/04/10 03:51:42;;;;;;;10.88;7.70;;;0.20;99.90;;;;;;493347;241;27391;-74
2022/04/10 03:53:44;;;;;;;13.98;8.57;;;0.10;99.90;;;;;;493316;241;27334;-72
2022/04/10 03:55:45;;;;;;;10.95;7.60;;;0.20;99.90;;;;;;493303;241;27399;-73
2022/04/10 03:57:46;;;;;;;8.48;6.90;;;0.10;99.90;;;;;;493325;241;27809;-77
2022/04/10 03:59:47;;;;;;;12.82;9.30;;;0.20;99.90;;;;;;493329;241;27354;-73
2022/04/10 04:01:49;;;;;;;14.40;9.65;;;0.20;99.90;;;;;;493309;241;27385;-72
2022/04/10 04:03:50;;;;;;;13.80;9.18;;;0.20;99.90;;;;;;493347;241;27900;-73
2022/04/10 04:05:51;;;;;;;11.70;7.40;;;0.20;99.90;;;;;;493320;241;27966;-73
2022/04/10 04:07:52;;;;;;;14.73;8.63;;;0.20;99.90;;;;;;493342;241;27395;-72
2022/04/10 04:09:54;;;;;;;12.35;8.63;;;0.20;99.90;;;;;;493327;241;27359;-73
2022/04/10 04:11:55;;;;;;;9.40;6.90;;;0.20;99.90;;;;;;493320;241;27465;-72
2022/04/10 04:13:56;;;;;;;12.65;8.10;;;0.20;99.90;;;;;;493289;241;27354;-73
2022/04/10 04:15:57;;;;;;;10.45;7.68;;;0.30;99.90;;;;;;493328;241;27469;-73
2022/04/10 04:17:59;;;;;;;12.20;7.95;;;0.40;99.90;;;;;;493306;241;27738;-75
2022/04/10 04:20:01;;;;;;;12.75;8.68;;;0.40;99.90;;;;;;493345;241;27367;-73
2022/04/10 04:22:01;;;;;;;9.90;7.70;;;0.40;99.90;;;;;;493247;241;27438;-73
2022/04/10 04:24:02;;;;;;;10.30;8.52;;;0.40;99.90;;;;;;493324;241;27871;-72
2022/04/10 04:26:05;;;;;;;10.07;7.43;;;0.40;99.90;;;;;;493326;241;27877;-73
2022/04/10 04:28:05;;;;;;;8.73;7.32;;;0.40;99.90;;;;;;493237;241;29040;-73
2022/04/10 04:30:06;;;;;;;12.35;8.50;;;0.40;99.90;;;;;;493347;241;27371;-73
2022/04/10 04:32:07;;;;;;;10.60;8.27;;;0.40;99.90;;;;;;493284;241;27382;-73
2022/04/10 04:34:11;;;;;;;12.95;7.78;;;0.40;99.90;;;;;;493312;241;27342;-73
2022/04/10 04:36:10;;;;;;;8.73;7.05;;;0.40;99.90;;;;;;493162;241;27384;-73
2022/04/10 04:38:11;;;;;;;12.40;8.90;;;0.50;99.90;;;;;;493334;241;27370;-72
2022/04/10 04:40:14;;;;;;;12.40;9.98;;;0.50;99.90;;;;;;493334;241;27410;-72
2022/04/10 04:42:14;;;;;;;14.73;10.57;;;0.50;99.90;;;;;;493242;241;27378;-73
2022/04/10 04:44:15;;;;;;;15.82;10.63;;;0.50;99.90;;;;;;493314;241;27801;-72
2022/04/10 04:46:16;;;;;;;15.18;10.40;;;0.40;99.90;;;;;;493337;241;27386;-72
2022/04/10 04:48:17;;;;;;;14.20;10.38;;;0.50;99.90;;;;;;493323;241;28029;-75
2022/04/10 04:50:19;;;;;;;14.60;9.73;;;0.50;99.90;;;;;;493349;240;27817;-72
2022/04/10 04:52:20;;;;;;;12.30;10.43;;;0.50;99.90;;;;;;493348;241;28722;-72
2022/04/10 04:54:21;;;;;;;13.88;10.27;;;0.60;99.90;;;;;;493317;241;27460;-73
2022/04/10 04:56:23;;;;;;;12.55;9.43;;;0.60;99.90;;;;;;493316;241;27370;-72
2022/04/10 04:58:24;;;;;;;12.05;9.07;;;0.70;99.90;;;;;;493321;241;27363;-72
2022/04/10 05:00:25;;;;;;;11.07;9.23;;;0.70;99.90;;;;;;493354;241;27425;-73
2022/04/10 05:02:26;;;;;;;9.75;8.25;;;0.80;99.90;;;;;;477159;248;27443;-72
2022/04/10 05:04:28;;;;;;;8.10;7.05;;;0.80;99.90;;;;;;493355;241;27343;-73
2022/04/10 05:06:29;;;;;;;9.27;7.35;;;0.80;99.90;;;;;;493405;241;27473;-73
2022/04/10 05:08:30;;;;;;;10.00;7.30;;;0.80;99.90;;;;;;493354;241;27961;-74
2022/04/10 05:10:31;;;;;;;9.70;7.12;;;0.80;99.90;;;;;;493363;241;27899;-73
2022/04/10 05:12:34;;;;;;;8.18;7.20;;;0.90;99.90;;;;;;493321;241;27898;-74
2022/04/10 05:14:34;;;;;;;9.65;7.20;;;0.90;99.90;;;;;;493266;241;27395;-73
2022/04/10 05:16:35;;;;;;;10.50;7.45;;;1.00;99.90;;;;;;493298;241;27393;-72
2022/04/10 05:18:36;;;;;;;8.30;7.15;;;0.90;99.90;;;;;;493334;241;27371;-73
2022/04/10 05:20:38;;;;;;;7.95;6.50;;;1.00;99.90;;;;;;493360;241;27352;-73
2022/04/10 05:22:39;;;;;;;8.75;6.82;;;1.00;99.90;;;;;;493300;241;27418;-72
2022/04/10 05:24:40;;;;;;;9.88;7.80;;;1.00;99.90;;;;;;493372;241;27425;-73
2022/04/10 05:26:42;;;;;;;8.15;6.70;;;1.00;99.90;;;;;;493304;241;27386;-73
2022/04/10 05:28:43;;;;;;;9.80;7.55;;;1.00;99.90;;;;;;493321;241;28019;-72
2022/04/10 05:30:44;;;;;;;9.25;7.35;;;1.10;99.90;;;;;;493336;241;27813;-73
2022/04/10 05:32:45;;;;;;;9.43;7.15;;;1.20;99.90;;;;;;493322;241;27888;-73
2022/04/10 05:34:46;;;;;;;8.25;6.70;;;1.10;99.90;;;;;;493322;241;27887;-73
2022/04/10 05:36:48;;;;;;;9.50;6.95;;;1.20;99.90;;;;;;493323;241;27400;-73
2022/04/10 05:38:49;;;;;;;9.27;6.95;;;1.20;99.90;;;;;;493354;241;27466;-73
2022/04/10 05:40:53;;;;;;;8.95;7.00;;;1.20;99.90;;;;;;477141;248;27447;-73
2022/04/10 05:42:51;;;;;;;8.00;6.85;;;1.30;99.90;;;;;;493155;241;27431;-73
2022/04/10 05:44:53;;;;;;;10.45;7.30;;;1.30;99.90;;;;;;493354;241;27391;-73
2022/04/10 05:46:54;;;;;;;7.05;6.35;;;1.30;99.90;;;;;;493339;241;27406;-73
2022/04/10 05:48:55;;;;;;;7.65;6.60;;;1.30;99.90;;;;;;493356;241;27468;-73
2022/04/10 05:50:56;;;;;;;8.05;6.75;;;1.40;99.90;;;;;;493326;241;27367;-73
2022/04/10 05:52:58;;;;;;;7.68;6.87;;;1.40;99.90;;;;;;493333;241;27406;-73
2022/04/10 05:54:59;;;;;;;9.27;6.50;;;1.40;99.90;;;;;;493357;241;27354;-73
2022/04/10 05:57:00;;;;;;;7.25;6.20;;;1.40;99.90;;;;;;493304;241;27848;-73
2022/04/10 05:59:01;;;;;;;7.80;6.50;;;1.40;99.90;;;;;;493327;241;28599;-72
2022/04/10 06:01:04;;;;;;;10.00;6.28;;;1.40;99.90;;;;;;493347;241;27865;-73
2022/04/10 06:03:05;;;;;;;8.18;7.32;;;1.50;99.90;;;;;;493361;241;27355;-73
2022/04/10 06:05:06;;;;;;;8.75;6.65;;;1.60;99.90;;;;;;493319;241;27437;-73
2022/04/10 06:07:07;;;;;;;10.73;7.03;;;1.60;99.90;;;;;;493328;241;27817;-73
2022/04/10 06:09:09;;;;;;;8.23;6.30;;;1.60;99.90;;;;;;493339;241;27818;-73
2022/04/10 06:11:10;;;;;;;7.50;6.40;;;1.60;99.90;;;;;;493240;241;29044;-75
2022/04/10 06:13:11;;;;;;;9.73;6.90;;;1.70;99.90;;;;;;493351;241;27807;-73
2022/04/10 06:15:13;;;;;;;9.13;7.15;;;1.70;99.90;;;;;;493367;241;27883;-73
2022/04/10 06:17:14;;;;;;;7.68;6.75;;;1.70;99.90;;;;;;493346;241;27972;-75
2022/04/10 06:19:21;;;;;;;8.65;7.05;;;1.80;99.90;;;;;;493389;241;27910;-76
2022/04/10 06:21:23;;;;;;;9.95;7.47;;;1.80;99.90;;;;;;493358;241;27969;-73
2022/04/10 06:23:24;;;;;;;8.98;7.22;;;1.80;99.90;;;;;;493322;241;28649;-72
2022/04/10 06:25:27;;;;;;;8.27;6.90;;;1.80;99.90;;;;;;493393;241;27425;-73
2022/04/10 06:27:28;;;;;;;10.07;7.65;;;1.90;99.90;;;;;;493385;241;27422;-73
2022/04/10 06:29:30;;;;;;;9.43;7.40;;;1.90;99.90;;;;;;493354;241;27343;-72
2022/04/10 06:31:31;;;;;;;7.75;6.95;;;2.00;99.90;;;;;;493372;241;27973;-73
2022/04/10 06:33:32;;;;;;;10.05;7.03;;;2.00;99.90;;;;;;493390;241;27972;-76
2022/04/10 06:35:34;;;;;;;8.88;7.22;;;2.10;99.90;;;;;;493390;241;27936;-73
2022/04/10 06:37:36;;;;;;;10.02;7.10;;;2.10;99.90;;;;;;493296;241;28320;-73
2022/04/10 06:39:36;;;;;;;9.38;7.75;;;2.20;99.90;;;;;;493246;241;27418;-72
2022/04/10 06:41:37;;;;;;;9.95;6.95;;;2.30;99.90;;;;;;493331;241;27346;-73
2022/04/10 06:43:39;;;;;;;8.55;6.82;;;2.40;99.90;;;;;;493346;241;27391;-74
2022/04/10 06:45:40;;;;;;;8.65;6.78;;;2.40;99.90;;;;;;493373;241;27339;-72
2022/04/10 06:47:41;;;;;;;8.85;7.28;;;2.40;99.90;;;;;;493360;241;27425;-73
2022/04/10 06:49:42;;;;;;;9.02;6.78;;;2.50;99.90;;;;;;493313;241;27401;-73
2022/04/10 06:51:44;;;;;;;7.82;7.03;;;2.50;99.90;;;;;;493354;241;27438;-74
2022/04/10 06:53:52;;;;;;;8.32;6.57;;;2.50;99.90;;;;;;493358;241;27394;-72
2022/04/10 06:55:53;;;;;;;8.50;7.18;;;2.60;99.90;;;;;;493361;241;27435;-73
2022/04/10 06:57:54;;;;;;;8.02;6.30;;;2.60;99.90;;;;;;493397;241;27430;-73
2022/04/10 06:59:55;;;;;;;7.20;6.25;;;2.70;99.90;;;;;;493329;241;27935;-74
2022/04/10 07:01:57;;;;;;;9.10;6.82;;;2.70;99.90;;;;;;493351;241;27965;-73
2022/04/10 07:03:58;;;;;;;9.02;7.50;;;2.70;99.90;;;;;;493355;241;27843;-73
2022/04/10 07:05:59;;;;;;;6.93;6.22;;;2.80;99.90;;;;;;493353;241;27982;-73
2022/04/10 07:08:00;;;;;;;8.45;6.72;;;2.80;99.90;;;;;;493349;241;27350;-73
2022/04/10 07:10:02;;;;;;;7.10;6.40;;;2.80;99.90;;;;;;493316;241;27374;-74
2022/04/10 07:12:03;;;;;;;7.90;6.68;;;2.80;99.90;;;;;;493350;241;27471;-75
2022/04/10 07:14:04;;;;;;;8.15;6.95;;;2.90;99.90;;;;;;493306;241;27342;-73
2022/04/10 07:16:05;;;;;;;8.43;6.47;;;2.90;99.90;;;;;;493326;241;27378;-73
2022/04/10 07:18:07;;;;;;;8.30;6.60;;;2.90;99.90;;;;;;493318;241;27453;-73
2022/04/10 07:20:08;;;;;;;7.95;6.97;;;2.90;99.90;;;;;;493300;241;27415;-74
2022/04/10 07:24:29;;;;;;;10.18;7.95;;;3.10;99.90;;;;;;493256;240;27342;-73
2022/04/10 07:26:30;;;;;;;8.35;7.40;;;3.20;99.90;;;;;;493199;241;27389;-74
2022/04/10 07:28:31;;;;;;;9.80;7.97;;;3.30;99.90;;;;;;493278;241;28019;-74
2022/04/10 07:30:32;;;;;;;7.65;6.50;;;3.40;99.90;;;;;;493296;241;27971;-73
2022/04/10 07:32:34;;;;;;;8.27;7.37;;;3.50;99.90;;;;;;493309;241;27962;-74
2022/04/10 07:34:35;;;;;;;9.40;7.30;;;3.60;99.90;;;;;;493242;241;27972;-74
2022/04/10 07:36:36;;;;;;;8.43;7.25;;;3.60;99.90;;;;;;493247;241;27401;-73
2022/04/10 07:38:37;;;;;;;7.80;6.80;;;3.60;99.90;;;;;;493308;241;27390;-73
2022/04/10 07:40:39;;;;;;;9.48;7.68;;;3.70;99.90;;;;;;493298;241;27352;-73
2022/04/10 07:42:40;;;;;;;9.32;7.40;;;3.70;99.90;;;;;;493291;241;27511;-74
2022/04/10 07:44:41;;;;;;;8.80;7.10;;;3.70;99.90;;;;;;493261;241;27342;-74
2022/04/10 07:49:02;;;;;;;8.23;6.95;;;3.80;99.90;;;;;;493364;240;27382;-73
2022/04/10 07:51:04;;;;;;;9.98;7.15;;;3.80;99.90;;;;;;493303;241;27861;-74
2022/04/10 07:53:04;;;;;;;6.97;6.25;;;3.90;99.90;;;;;;493274;241;27889;-76
2022/04/10 07:55:05;;;;;;;7.57;6.57;;;3.90;99.90;;;;;;493340;241;27797;-75
2022/04/10 07:57:07;;;;;;;8.13;6.25;;;4.00;99.90;;;;;;493340;241;27383;-73
2022/04/10 07:59:08;;;;;;;10.63;7.28;;;4.00;99.90;;;;;;493372;241;27387;-75
2022/04/10 08:01:09;;;;;;;8.27;6.80;;;3.90;99.90;;;;;;493320;241;27417;-72
2022/04/10 08:03:10;;;;;;;7.70;6.90;;;3.90;99.90;;;;;;493358;241;27465;-73
2022/04/10 08:05:12;;;;;;;8.40;7.30;;;4.00;99.90;;;;;;493401;241;27486;-75
2022/04/10 08:07:13;;;;;;;7.87;6.75;;;4.10;99.90;;;;;;493408;241;27405;-75
2022/04/10 08:09:14;;;;;;;7.43;6.62;;;4.20;99.90;;;;;;493374;241;27958;-74
2022/04/10 08:11:15;;;;;;;8.70;6.55;;;4.30;99.90;;;;;;493395;241;27911;-75
2022/04/10 08:13:17;;;;;;;8.75;6.68;;;4.30;99.90;;;;;;493439;241;27374;-75
2022/04/10 08:15:18;;;;;;;8.13;6.40;;;4.40;99.90;;;;;;493352;241;27346;-74
2022/04/10 08:17:26;;;;;;;7.32;6.55;;;4.50;99.90;;;;;;493412;241;27441;-75
2022/04/10 08:19:27;;;;;;;8.07;6.43;;;4.60;99.90;;;;;;493373;241;27352;-73
2022/04/10 08:21:32;;;;;;;7.22;6.55;;;4.80;99.90;;;;;;493415;241;27390;-72
2022/04/10 08:23:34;;;;;;;7.20;5.78;;;4.90;99.90;;;;;;493359;241;27473;-74
2022/04/10 08:25:38;;;;;;;8.00;5.60;;;4.90;99.90;;;;;;493350;241;27771;-76
2022/04/10 08:27:40;;;;;;;12.40;6.82;;;5.00;99.90;;;;;;493386;241;27391;-75
2022/04/10 08:29:40;;;;;;;13.07;6.60;;;5.00;99.90;;;;;;493343;241;27802;-73
2022/04/10 08:31:41;;;;;;;7.43;6.35;;;5.00;99.90;;;;;;493384;241;27987;-73
2022/04/10 08:33:43;;;;;;;8.00;6.22;;;5.10;99.90;;;;;;493406;241;27475;-74
2022/04/10 08:35:44;;;;;;;9.32;6.72;;;5.10;99.90;;;;;;493407;241;27347;-72
2022/04/10 08:37:45;;;;;;;7.65;6.72;;;5.30;99.90;;;;;;493390;241;27366;-73
2022/04/10 08:39:46;;;;;;;6.85;5.30;;;5.40;99.90;;;;;;493397;241;27722;-72
2022/04/10 08:41:49;;;;;;;9.40;5.90;;;5.60;99.90;;;;;;493412;241;27386;-74
2022/04/10 08:43:50;;;;;;;6.20;5.57;;;5.70;99.90;;;;;;493384;241;28710;-75
2022/04/10 08:45:51;;;;;;;6.73;5.20;;;5.70;99.90;;;;;;493432;241;27884;-75
2022/04/10 08:47:58;;;;;;;8.85;5.62;;;5.60;99.90;;;;;;493394;241;29061;-76
2022/04/10 08:50:00;;;;;;;6.10;5.50;;;5.60;99.90;;;;;;493419;241;27413;-73
2022/04/10 08:52:01;;;;;;;6.47;5.83;;;5.50;99.90;;;;;;493417;241;28793;-73
2022/04/10 08:54:08;;;;;;;6.05;5.00;;;5.50;99.90;;;;;;493372;241;29199;-76
2022/04/10 08:56:09;;;;;;;7.13;5.63;;;5.50;99.90;;;;;;493387;241;27341;-73
2022/04/10 08:58:11;;;;;;;6.47;5.78;;;5.40;99.90;;;;;;493376;241;28806;-75
2022/04/10 09:00:12;;;;;;;6.62;5.80;;;5.40;99.90;;;;;;493342;241;27850;-75
2022/04/10 09:02:14;;;;;;;7.43;6.65;;;5.40;99.90;;;;;;493445;241;27406;-74
2022/04/10 09:04:15;;;;;;;6.40;5.60;;;5.50;99.90;;;;;;493385;241;27818;-72
2022/04/10 09:06:16;;;;;;;8.00;6.32;;;5.60;99.90;;;;;;493383;241;27398;-74
2022/04/10 09:08:18;;;;;;;6.32;5.50;;;5.60;99.90;;;;;;493386;241;28051;-73
2022/04/10 09:10:19;;;;;;;8.35;6.03;;;5.70;99.90;;;;;;493404;241;27357;-72
2022/04/10 09:12:20;;;;;;;7.73;5.60;;;5.70;99.90;;;;;;493431;241;27453;-73
2022/04/10 09:14:21;;;;;;;6.30;5.12;;;5.80;99.90;;;;;;493366;241;28670;-75
2022/04/10 09:16:23;;;;;;;6.63;5.73;;;5.90;99.90;;;;;;493402;241;27409;-74
2022/04/10 09:18:25;;;;;;;6.83;5.93;;;5.90;99.90;;;;;;493398;241;28789;-72
2022/04/10 09:20:26;;;;;;;10.83;5.80;;;6.00;99.90;;;;;;493375;241;28726;-75
2022/04/10 09:22:27;;;;;;;6.65;5.78;;;6.10;99.90;;;;;;493394;241;27822;-74
2022/04/10 09:24:30;;;;;;;8.10;5.03;;;6.10;99.90;;;;;;493374;241;27886;-75
2022/04/10 09:26:33;;;;;;;6.15;5.32;;;6.30;99.90;;;;;;493391;241;28681;-73
2022/04/10 09:28:34;;;;;;;6.53;5.30;;;6.50;99.90;;;;;;493433;241;27395;-72
2022/04/10 09:30:35;;;;;;;5.80;5.20;;;6.50;99.90;;;;;;493379;241;27839;-75
2022/04/10 09:32:37;;;;;;;7.90;5.80;;;6.60;99.90;;;;;;493337;241;27845;-75
2022/04/10 09:34:38;;;;;;;6.67;5.30;;;6.40;99.90;;;;;;493349;241;28389;-74
2022/04/10 09:36:39;;;;;;;5.93;5.00;;;6.30;99.90;;;;;;493329;241;28282;-72
2022/04/10 09:38:40;;;;;;;6.80;5.00;;;6.10;99.90;;;;;;493369;241;28396;-74
2022/04/10 09:40:42;;;;;;;6.70;5.20;;;6.00;99.90;;;;;;493355;239;28413;-74
2022/04/10 09:42:43;;;;;;;7.00;4.80;;;6.00;99.90;;;;;;493369;241;28805;-74
2022/04/10 09:44:44;;;;;;;5.87;4.97;;;6.10;99.90;;;;;;493318;241;28383;-74
2022/04/10 09:46:45;;;;;;;7.47;5.30;;;6.20;99.90;;;;;;493322;241;27729;-73
2022/04/10 09:48:47;;;;;;;6.33;5.40;;;6.10;99.90;;;;;;493393;241;27636;-75
2022/04/10 09:50:48;;;;;;;6.43;5.28;;;6.00;99.90;;;;;;493374;241;28749;-73
2022/04/10 09:52:49;;;;;;;6.00;4.03;;;6.10;99.90;;;;;;493339;241;27389;-73
2022/04/10 09:54:50;;;;;;;6.20;4.73;;;6.20;99.90;;;;;;493352;241;27354;-73
2022/04/10 09:56:52;;;;;;;5.30;4.43;;;6.10;99.90;;;;;;493350;241;27517;-75
2022/04/10 09:58:53;;;;;;;8.80;5.17;;;5.90;99.90;;;;;;493408;241;28727;-73
2022/04/10 10:00:54;;;;;;;7.40;4.77;;;6.10;99.90;;;;;;493390;241;29136;-75
2022/04/10 10:02:55;;;;;;;7.23;5.10;;;6.20;99.90;;;;;;493393;241;28585;-75
2022/04/10 10:04:57;;;;;;;5.20;4.70;;;6.30;99.90;;;;;;493382;241;28984;-75
2022/04/10 10:06:58;;;;;;;6.22;4.60;;;6.50;99.90;;;;;;493337;241;28226;-75
2022/04/10 10:08:59;;;;;;;6.13;5.07;;;6.60;99.90;;;;;;493401;241;27462;-75
2022/04/10 10:11:00;;;;;;;5.57;4.40;;;6.40;99.90;;;;;;493364;241;27697;-75
2022/04/10 10:13:02;;;;;;;5.97;4.77;;;6.40;99.90;;;;;;493357;241;27620;-75
2022/04/10 10:15:03;;;;;;;6.50;4.70;;;6.40;99.90;;;;;;493340;241;28285;-75
2022/04/10 10:17:04;;;;;;;8.23;4.93;;;6.30;99.90;;;;;;493338;241;27471;-75
2022/04/10 10:19:05;;;;;;;5.10;4.20;;;5.90;99.90;;;;;;493388;241;28741;-77
2022/04/10 10:21:07;;;;;;;7.60;4.83;;;5.90;99.90;;;;;;493349;241;28411;-75
2022/04/10 10:23:08;;;;;;;5.15;4.65;;;6.00;99.90;;;;;;493332;241;28169;-75
2022/04/10 10:25:09;;;;;;;5.63;4.43;;;6.20;99.90;;;;;;493363;241;27474;-75
2022/04/10 10:27:10;;;;;;;8.90;4.03;;;6.40;99.90;;;;;;493305;241;27744;-75
2022/04/10 10:29:12;;;;;;;6.18;3.97;;;6.50;99.90;;;;;;493383;241;28430;-73
2022/04/10 10:31:13;;;;;;;4.63;3.97;;;6.60;99.90;;;;;;493405;241;27875;-74
2022/04/10 10:33:14;;;;;;;4.97;3.50;;;6.50;99.90;;;;;;493316;241;28268;-75
2022/04/10 10:35:15;;;;;;;4.82;3.58;;;6.50;99.90;;;;;;477169;248;27484;-74
2022/04/10 10:37:17;;;;;;;6.73;4.00;;;6.60;99.90;;;;;;490204;238;27639;-72
2022/04/10 10:39:18;;;;;;;6.20;3.95;;;6.60;99.90;;;;;;482634;246;28260;-74
2022/04/10 10:41:19;;;;;;;8.30;4.30;;;6.50;99.90;;;;;;489131;243;27464;-74
2022/04/10 10:43:21;;;;;;;5.57;3.72;;;6.40;99.90;;;;;;489075;243;27427;-73
2022/04/10 10:45:22;;;;;;;5.47;3.77;;;6.30;99.90;;;;;;489091;243;27370;-73